Time;durP1;ratioP1;P1;durP2;ratioP2;P2;SDS_P1;SDS_P2;PMS_P1;PMS_P2;Temp;Humidity;BMP_temperature;BMP_pressure;BME280_temperature;BME280_humidity;BME280_pressure;Samples;Min_cycle;Max_cycle;Signal;HPM_P1;HPM_P2
2023/10/08 00:00:49;;;;;;;8.43;5.30;;;17.60;1.00;;;;;;5077477;28;20570;-59
2023/10/08 00:03:17;;;;;;;8.80;5.97;;;17.60;1.00;;;;;;5077674;28;20468;-59
2023/10/08 00:05:46;;;;;;;8.53;6.03;;;17.60;1.00;;;;;;5077308;28;20500;-61
2023/10/08 00:08:16;;;;;;;8.33;5.80;;;17.50;1.00;;;;;;5077233;28;20524;-58
2023/10/08 00:10:45;;;;;;;10.67;7.03;;;17.50;1.00;;;;;;5077075;28;20591;-59
2023/10/08 00:13:12;;;;;;;10.80;7.40;;;17.50;1.00;;;;;;5076614;28;20511;-59
2023/10/08 00:15:44;;;;;;;8.43;5.60;;;17.50;3.50;;;;;;5075539;28;20548;-58
2023/10/08 00:18:12;;;;;;;10.00;5.90;;;17.50;1.00;;;;;;5076483;28;20462;-60
2023/10/08 00:20:52;;;;;;;8.23;6.43;;;17.40;1.00;;;;;;5076210;28;20471;-59
2023/10/08 00:23:25;;;;;;;10.10;6.83;;;17.40;1.00;;;;;;5075899;28;20461;-58
2023/10/08 00:25:53;;;;;;;7.83;5.80;;;17.40;1.00;;;;;;5075836;28;20468;-59
2023/10/08 00:28:21;;;;;;;10.10;5.80;;;17.30;17.20;;;;;;5077577;28;20464;-59
2023/10/08 00:30:49;;;;;;;10.10;6.37;;;17.40;29.40;;;;;;5076831;28;20493;-59
2023/10/08 00:33:16;;;;;;;13.13;6.30;;;17.40;20.80;;;;;;5077412;28;20462;-59
2023/10/08 00:35:44;;;;;;;10.00;5.87;;;17.40;27.90;;;;;;5077223;28;20461;-59
2023/10/08 00:38:16;;;;;;;7.83;5.43;;;17.40;8.40;;;;;;5077677;28;20458;-58
2023/10/08 00:40:45;;;;;;;7.33;5.90;;;17.40;15.60;;;;;;5077436;28;20874;-58
2023/10/08 00:43:28;;;;;;;8.37;5.90;;;17.40;17.50;;;;;;5077674;28;20491;-58
2023/10/08 00:45:58;;;;;;;9.50;5.50;;;17.40;40.00;;;;;;5077408;28;20551;-58
2023/10/08 00:48:28;;;;;;;7.00;5.50;;;17.40;13.00;;;;;;5077075;28;20739;-58
2023/10/08 00:51:09;;;;;;;8.13;6.33;;;17.30;52.80;;;;;;5076732;28;20467;-58
2023/10/08 00:53:39;;;;;;;10.40;6.00;;;17.30;49.90;;;;;;5077548;28;20465;-59
2023/10/08 00:56:14;;;;;;;9.00;6.10;;;17.30;58.30;;;;;;5077027;28;20501;-58
2023/10/08 00:58:46;;;;;;;9.80;6.23;;;17.30;80.10;;;;;;5076986;28;20559;-58
2023/10/08 01:01:16;;;;;;;15.93;6.67;;;17.30;84.40;;;;;;5077171;28;20433;-59
2023/10/08 01:03:44;;;;;;;9.63;5.77;;;17.20;95.00;;;;;;5076840;28;20569;-59
2023/10/08 01:06:12;;;;;;;9.10;6.03;;;17.30;99.90;;;;;;5076299;28;20512;-59
2023/10/08 01:08:47;;;;;;;9.33;6.40;;;17.30;99.90;;;;;;5076396;28;20488;-59
2023/10/08 01:11:45;;;;;;;9.00;5.60;;;17.20;99.90;;;;;;5076510;28;20515;-59
2023/10/08 01:14:11;;;;;;;9.13;6.13;;;17.10;99.90;;;;;;5076302;28;20760;-59
2023/10/08 01:16:41;;;;;;;10.10;6.80;;;17.20;99.90;;;;;;5076897;28;20963;-59
2023/10/08 01:19:13;;;;;;;9.20;5.97;;;17.20;99.90;;;;;;5076661;28;20458;-58
2023/10/08 01:21:40;;;;;;;12.30;6.50;;;17.20;99.90;;;;;;5081171;28;20435;-59
2023/10/08 01:24:16;;;;;;;8.83;5.40;;;17.10;99.90;;;;;;5081130;28;20453;-59
2023/10/08 01:26:45;;;;;;;11.13;6.77;;;17.00;99.90;;;;;;5080748;28;20848;-59
2023/10/08 01:29:20;;;;;;;9.10;6.40;;;17.00;99.90;;;;;;5080925;28;20461;-59
2023/10/08 01:31:48;;;;;;;8.97;5.60;;;17.00;99.90;;;;;;5080883;28;20805;-58
2023/10/08 01:34:17;;;;;;;8.37;5.57;;;17.00;99.90;;;;;;5080587;28;20564;-58
2023/10/08 01:36:45;;;;;;;7.27;5.67;;;17.00;99.90;;;;;;5080650;28;20554;-58
2023/10/08 01:39:21;;;;;;;9.20;6.40;;;16.90;99.90;;;;;;5080738;28;20461;-58
2023/10/08 01:41:51;;;;;;;12.77;7.00;;;16.90;99.90;;;;;;5080742;28;20884;-59
2023/10/08 01:44:18;;;;;;;8.87;5.90;;;16.80;99.90;;;;;;5080671;28;20468;-58
2023/10/08 01:46:49;;;;;;;8.40;6.37;;;16.80;99.90;;;;;;5080346;28;20556;-58
2023/10/08 01:49:21;;;;;;;8.93;6.27;;;16.80;99.90;;;;;;5080637;28;20461;-59
2023/10/08 01:51:49;;;;;;;7.37;5.63;;;16.70;99.90;;;;;;5080404;28;20426;-59
2023/10/08 01:54:21;;;;;;;9.20;6.33;;;16.70;99.90;;;;;;5080721;28;20510;-58
2023/10/08 01:56:50;;;;;;;6.70;6.00;;;16.60;99.90;;;;;;5079639;28;20488;-58
2023/10/08 01:59:17;;;;;;;9.57;6.37;;;16.70;99.90;;;;;;5080490;28;20438;-59
2023/10/08 02:01:45;;;;;;;8.43;5.93;;;16.60;99.90;;;;;;5080581;28;20456;-59
2023/10/08 02:04:13;;;;;;;8.10;6.17;;;16.60;99.90;;;;;;5080165;28;20464;-58
2023/10/08 02:06:41;;;;;;;8.73;6.20;;;16.60;99.90;;;;;;5080398;28;20551;-59
2023/10/08 02:09:09;;;;;;;10.50;6.40;;;16.70;99.90;;;;;;5080099;28;20539;-59
2023/10/08 02:11:46;;;;;;;7.97;6.30;;;16.70;99.90;;;;;;5080341;28;20525;-59
2023/10/08 02:14:15;;;;;;;8.57;5.70;;;16.70;99.90;;;;;;5080639;28;20495;-59
2023/10/08 02:16:43;;;;;;;9.07;6.57;;;16.70;99.90;;;;;;5079799;28;20457;-58
2023/10/08 02:19:11;;;;;;;8.40;6.10;;;16.70;99.90;;;;;;5079704;28;20468;-58
2023/10/08 02:21:41;;;;;;;9.20;7.50;;;16.70;99.90;;;;;;5079776;28;20453;-58
2023/10/08 02:24:11;;;;;;;8.10;5.80;;;16.70;99.90;;;;;;5080120;28;20468;-58
2023/10/08 02:26:39;;;;;;;8.20;6.20;;;16.70;99.90;;;;;;5079987;28;20525;-56
2023/10/08 02:29:10;;;;;;;8.90;6.30;;;16.70;99.90;;;;;;5079522;28;20515;-58
2023/10/08 02:31:38;;;;;;;12.00;6.33;;;16.70;99.90;;;;;;5079368;28;20805;-58
2023/10/08 02:34:08;;;;;;;8.30;6.50;;;16.60;99.90;;;;;;5080097;28;20457;-58
2023/10/08 02:36:37;;;;;;;10.13;6.30;;;16.60;99.90;;;;;;5079391;28;20453;-58
2023/10/08 02:39:07;;;;;;;10.80;6.40;;;16.60;99.90;;;;;;5079687;28;20457;-58
2023/10/08 02:41:34;;;;;;;6.70;6.00;;;16.50;99.90;;;;;;5079902;28;20542;-57
2023/10/08 02:44:05;;;;;;;10.87;6.57;;;16.50;99.90;;;;;;5079965;28;20457;-58
2023/10/08 02:46:37;;;;;;;13.60;7.03;;;16.40;99.90;;;;;;5079470;28;20546;-58
2023/10/08 02:49:06;;;;;;;11.53;5.80;;;16.40;99.90;;;;;;5079474;28;20578;-58
2023/10/08 02:51:33;;;;;;;10.03;6.03;;;16.50;99.90;;;;;;5078635;28;20489;-58
2023/10/08 02:54:00;;;;;;;10.07;6.23;;;16.40;99.90;;;;;;5079501;28;20461;-58
2023/10/08 02:56:32;;;;;;;8.80;6.40;;;16.40;99.90;;;;;;5079472;28;20457;-58
2023/10/08 02:59:00;;;;;;;8.97;6.17;;;16.40;99.90;;;;;;5079153;28;20522;-59
2023/10/08 03:01:27;;;;;;;10.03;6.40;;;16.30;99.90;;;;;;5079054;28;20461;-59
2023/10/08 03:04:03;;;;;;;10.90;7.07;;;16.30;99.90;;;;;;5079224;28;20464;-58
2023/10/08 03:06:32;;;;;;;12.53;7.40;;;16.30;99.90;;;;;;5078729;28;20468;-59
2023/10/08 03:09:04;;;;;;;14.03;7.83;;;16.30;99.90;;;;;;5078996;28;20464;-59
2023/10/08 03:11:32;;;;;;;9.90;6.67;;;16.20;99.90;;;;;;5079270;28;20742;-59
2023/10/08 03:13:59;;;;;;;11.63;6.90;;;16.20;99.90;;;;;;5078996;28;20468;-59
2023/10/08 03:16:33;;;;;;;9.03;6.53;;;16.20;99.90;;;;;;5078513;28;20464;-59
2023/10/08 03:19:05;;;;;;;9.27;7.17;;;16.10;99.90;;;;;;5078931;28;20456;-59
2023/10/08 03:21:50;;;;;;;12.83;7.73;;;16.10;99.90;;;;;;5078825;28;20963;-59
2023/10/08 03:27:12;;;;;;;14.70;7.30;;;16.10;99.90;;;;;;5062699;28;20441;-58
2023/10/08 03:29:41;;;;;;;10.47;6.80;;;16.00;99.90;;;;;;5078254;28;20457;-58
2023/10/08 03:32:13;;;;;;;10.53;6.27;;;16.10;99.90;;;;;;5078509;28;20536;-58
2023/10/08 03:34:46;;;;;;;9.93;6.40;;;16.10;99.90;;;;;;5078876;28;20551;-58
2023/10/08 03:37:19;;;;;;;11.13;7.27;;;16.10;99.90;;;;;;5078939;28;20468;-58
2023/10/08 03:40:00;;;;;;;9.77;7.00;;;16.00;99.90;;;;;;5078569;28;20461;-59
2023/10/08 03:42:34;;;;;;;11.63;6.50;;;16.00;99.90;;;;;;5077537;28;20806;-58
2023/10/08 03:45:11;;;;;;;10.60;6.43;;;16.00;99.90;;;;;;5078600;28;20559;-59
2023/10/08 03:47:39;;;;;;;9.50;7.30;;;15.90;99.90;;;;;;5078774;28;20458;-59
2023/10/08 03:50:16;;;;;;;11.60;7.13;;;15.90;1.00;;;;;;5077690;28;20487;-59
2023/10/08 03:52:44;;;;;;;11.33;7.57;;;15.90;1.00;;;;;;5078151;28;20468;-58
2023/10/08 03:55:21;;;;;;;8.70;6.47;;;15.80;1.00;;;;;;5078280;28;20882;-59
2023/10/08 03:57:56;;;;;;;13.80;7.30;;;15.90;1.00;;;;;;5077960;28;20440;-59
2023/10/08 04:00:31;;;;;;;13.97;7.17;;;15.90;99.90;;;;;;5078420;28;20432;-58
2023/10/08 04:03:07;;;;;;;8.37;7.07;;;15.90;99.90;;;;;;5078321;28;20471;-59
2023/10/08 04:05:44;;;;;;;9.60;7.10;;;15.90;99.90;;;;;;5077657;28;20461;-59
2023/10/08 04:08:24;;;;;;;9.67;6.60;;;16.00;99.90;;;;;;5077624;28;20869;-57
2023/10/08 04:11:28;;;;;;;7.90;6.20;;;16.00;99.90;;;;;;5077770;28;20463;-58
2023/10/08 04:13:57;;;;;;;13.90;6.20;;;16.10;99.90;;;;;;5077726;28;20461;-59
2023/10/08 04:16:27;;;;;;;8.43;5.87;;;15.90;99.90;;;;;;5078200;28;20461;-58
2023/10/08 04:18:55;;;;;;;8.23;6.50;;;15.80;99.90;;;;;;5077656;28;20461;-59
2023/10/08 04:21:27;;;;;;;9.47;6.90;;;15.80;99.90;;;;;;5077721;28;20457;-59
2023/10/08 04:23:57;;;;;;;11.40;5.97;;;15.90;99.90;;;;;;5077698;28;20461;-59
2023/10/08 04:26:25;;;;;;;10.90;7.60;;;15.90;99.90;;;;;;5077433;28;20461;-58
2023/10/08 04:28:57;;;;;;;8.50;6.70;;;15.80;99.90;;;;;;5077640;28;20464;-58
2023/10/08 04:31:27;;;;;;;8.53;6.30;;;15.90;99.90;;;;;;5077648;28;20493;-58
2023/10/08 04:33:55;;;;;;;9.33;6.80;;;15.90;99.90;;;;;;5077643;28;20583;-58
2023/10/08 04:36:24;;;;;;;9.97;6.83;;;15.90;99.90;;;;;;5077194;28;20461;-59
2023/10/08 04:38:54;;;;;;;18.03;7.60;;;16.00;99.90;;;;;;5077522;28;20829;-58
2023/10/08 04:41:28;;;;;;;10.57;6.67;;;16.00;99.90;;;;;;5077740;28;20892;-57
2023/10/08 04:43:55;;;;;;;9.87;6.30;;;15.90;99.90;;;;;;5077104;28;20472;-58
2023/10/08 04:46:46;;;;;;;12.57;6.90;;;16.00;99.90;;;;;;5076787;28;20461;-59
2023/10/08 04:49:27;;;;;;;10.87;6.70;;;15.90;99.90;;;;;;5077547;28;20440;-58
2023/10/08 04:51:58;;;;;;;9.00;6.33;;;15.90;99.90;;;;;;5077073;28;20511;-57
2023/10/08 04:54:29;;;;;;;8.53;6.33;;;15.90;99.90;;;;;;5076943;28;20569;-58
2023/10/08 04:56:59;;;;;;;10.80;6.80;;;15.90;99.90;;;;;;5077789;28;20485;-58
2023/10/08 04:59:32;;;;;;;7.90;6.60;;;15.90;99.90;;;;;;5077608;28;20485;-59
2023/10/08 05:02:33;;;;;;;11.70;6.70;;;15.90;99.90;;;;;;5076989;28;20905;-59
2023/10/08 05:05:22;;;;;;;10.13;6.13;;;15.90;99.90;;;;;;5077221;28;20562;-59
2023/10/08 05:13:30;;;;;;;9.47;7.07;;;15.70;99.90;;;;;;5076988;28;20440;-56
2023/10/08 05:16:11;;;;;;;11.77;6.57;;;15.70;99.90;;;;;;5076661;28;20465;-58
2023/10/08 05:21:28;;;;;;;9.97;7.73;;;15.60;99.90;;;;;;5076867;28;20424;-58
2023/10/08 05:24:13;;;;;;;11.30;7.60;;;15.70;99.90;;;;;;5076527;28;20457;-58
2023/10/08 05:26:49;;;;;;;10.83;6.60;;;15.60;99.90;;;;;;5077301;28;20961;-59
2023/10/08 05:34:56;;;;;;;10.00;6.40;;;15.60;99.90;;;;;;5076322;28;20440;-59
2023/10/08 05:37:37;;;;;;;9.00;7.20;;;15.50;99.90;;;;;;5077023;28;20507;-58
2023/10/08 05:40:20;;;;;;;11.33;7.03;;;15.60;99.90;;;;;;5077209;28;20457;-59
2023/10/08 05:42:49;;;;;;;9.60;6.57;;;15.60;99.90;;;;;;5076259;28;20756;-58
2023/10/08 05:45:29;;;;;;;10.53;6.63;;;15.60;99.90;;;;;;5076877;28;20456;-58
2023/10/08 05:48:12;;;;;;;13.57;7.23;;;15.70;99.90;;;;;;5076951;28;20457;-59
2023/10/08 05:50:43;;;;;;;12.03;6.63;;;15.70;99.90;;;;;;5076102;28;20609;-58
2023/10/08 05:53:29;;;;;;;9.77;6.10;;;15.80;99.90;;;;;;5076618;28;20457;-58
2023/10/08 05:56:27;;;;;;;12.13;7.40;;;15.80;99.90;;;;;;5076949;28;20457;-58
2023/10/08 05:59:14;;;;;;;13.00;7.43;;;15.80;99.90;;;;;;5076514;28;20457;-59
2023/10/08 06:01:42;;;;;;;14.30;7.17;;;15.80;99.90;;;;;;5076489;28;20453;-58
2023/10/08 06:07:12;;;;;;;9.13;7.43;;;15.80;99.90;;;;;;5078599;28;20436;-58
2023/10/08 06:09:39;;;;;;;16.07;6.90;;;15.70;99.90;;;;;;5080372;28;20484;-58
2023/10/08 06:12:19;;;;;;;11.97;7.20;;;15.70;99.90;;;;;;5080564;28;20464;-59
2023/10/08 06:20:16;;;;;;;10.60;7.20;;;15.60;99.90;;;;;;5069570;28;20408;-59
2023/10/08 06:22:44;;;;;;;10.37;7.27;;;15.60;99.90;;;;;;5079752;28;20893;-58
2023/10/08 06:25:18;;;;;;;13.83;6.87;;;15.60;99.90;;;;;;5079976;28;20428;-59
2023/10/08 06:27:46;;;;;;;10.10;6.20;;;15.60;99.90;;;;;;5079822;28;20457;-58
2023/10/08 06:30:16;;;;;;;11.20;6.67;;;15.60;99.90;;;;;;5079702;28;20463;-58
2023/10/08 06:32:45;;;;;;;10.23;6.80;;;15.60;99.90;;;;;;5079749;28;20497;-58
2023/10/08 06:35:17;;;;;;;9.57;6.07;;;15.70;99.90;;;;;;5079972;28;20462;-58
2023/10/08 06:37:45;;;;;;;9.90;7.10;;;15.70;99.90;;;;;;5079927;28;20461;-58
2023/10/08 06:40:40;;;;;;;11.30;8.27;;;15.70;99.90;;;;;;5079820;28;20719;-58
2023/10/08 06:43:11;;;;;;;9.53;6.80;;;15.80;99.90;;;;;;5079054;28;20461;-58
2023/10/08 06:45:41;;;;;;;11.63;6.87;;;15.80;99.90;;;;;;5078922;28;20811;-58
2023/10/08 06:48:09;;;;;;;10.53;6.77;;;15.70;99.90;;;;;;5079639;28;20457;-58
2023/10/08 06:50:36;;;;;;;12.10;7.57;;;15.70;99.90;;;;;;5079528;28;20820;-58
2023/10/08 06:53:07;;;;;;;11.10;6.30;;;15.80;99.90;;;;;;5079109;28;20492;-58
2023/10/08 06:55:35;;;;;;;11.63;7.40;;;15.80;99.90;;;;;;5078831;28;20560;-58
2023/10/08 06:58:08;;;;;;;12.87;7.40;;;15.80;99.90;;;;;;5079238;28;20891;-58
2023/10/08 07:00:40;;;;;;;13.10;6.53;;;15.80;99.90;;;;;;5079749;28;20533;-59
2023/10/08 07:03:10;;;;;;;11.03;7.60;;;15.80;99.90;;;;;;5079229;28;20504;-58
2023/10/08 07:05:40;;;;;;;12.83;7.93;;;15.80;99.90;;;;;;5079436;28;20432;-58
2023/10/08 07:08:14;;;;;;;9.47;5.80;;;15.70;99.90;;;;;;5078810;28;20462;-58
2023/10/08 07:10:43;;;;;;;13.37;7.40;;;15.70;99.90;;;;;;5078872;28;20457;-58
2023/10/08 07:13:11;;;;;;;14.40;7.67;;;15.70;99.90;;;;;;5078682;28;20497;-58
2023/10/08 07:15:40;;;;;;;13.90;7.47;;;15.80;99.90;;;;;;5078782;28;20520;-58
2023/10/08 07:18:12;;;;;;;9.80;7.20;;;15.90;99.90;;;;;;5078934;28;20467;-58
2023/10/08 07:20:41;;;;;;;12.97;7.33;;;16.00;99.90;;;;;;5078761;28;20463;-58
2023/10/08 07:23:24;;;;;;;16.50;7.17;;;16.10;99.90;;;;;;5077121;28;20723;-58
2023/10/08 07:26:05;;;;;;;11.37;7.17;;;16.00;99.90;;;;;;5077106;28;20625;-58
2023/10/08 07:28:33;;;;;;;10.90;7.70;;;16.10;99.90;;;;;;5077386;28;20461;-59
2023/10/08 07:31:02;;;;;;;10.57;6.97;;;16.10;99.90;;;;;;5076999;28;20499;-58
2023/10/08 07:33:36;;;;;;;16.43;7.33;;;16.10;99.90;;;;;;5077303;28;20480;-58
2023/10/08 07:36:11;;;;;;;12.50;8.30;;;16.00;99.90;;;;;;5076926;28;20457;-58
2023/10/08 07:38:42;;;;;;;12.20;7.73;;;16.00;99.90;;;;;;5078775;28;20551;-58
2023/10/08 07:41:12;;;;;;;10.63;6.83;;;16.00;99.90;;;;;;5078477;28;20457;-57
2023/10/08 07:43:41;;;;;;;14.80;7.50;;;16.10;99.90;;;;;;5078102;28;20481;-58
2023/10/08 07:46:10;;;;;;;17.10;8.27;;;16.00;99.90;;;;;;5078702;28;20471;-58
2023/10/08 07:48:42;;;;;;;13.80;9.03;;;15.90;99.90;;;;;;5078814;28;20857;-58
2023/10/08 07:51:09;;;;;;;14.77;8.13;;;15.80;99.90;;;;;;5078249;28;20443;-58
2023/10/08 07:53:38;;;;;;;12.40;7.97;;;15.90;99.90;;;;;;5078272;28;20968;-59
2023/10/08 07:56:08;;;;;;;11.30;7.67;;;16.00;99.90;;;;;;5077967;28;20462;-59
2023/10/08 07:58:36;;;;;;;15.57;7.90;;;16.10;99.90;;;;;;5078257;28;20465;-58
2023/10/08 08:01:07;;;;;;;13.27;8.13;;;16.20;99.90;;;;;;5077872;28;20468;-58
2023/10/08 08:03:36;;;;;;;12.07;8.30;;;16.20;99.90;;;;;;5077750;28;20463;-58
2023/10/08 08:06:05;;;;;;;12.57;8.13;;;16.10;99.90;;;;;;5078164;28;20461;-58
2023/10/08 08:08:33;;;;;;;13.80;8.10;;;16.30;99.90;;;;;;5077804;28;20485;-58
2023/10/08 08:11:05;;;;;;;14.33;8.00;;;16.30;99.90;;;;;;5078289;28;20481;-57
2023/10/08 08:13:33;;;;;;;17.90;10.33;;;16.30;99.90;;;;;;5078071;28;20858;-57
2023/10/08 08:16:16;;;;;;;20.10;10.00;;;16.70;99.90;;;;;;5078287;28;20428;-58
2023/10/08 08:18:45;;;;;;;23.60;9.90;;;17.10;99.90;;;;;;5077537;28;20464;-58
2023/10/08 08:21:15;;;;;;;22.60;10.80;;;17.10;99.90;;;;;;5077117;28;20462;-57
2023/10/08 08:23:47;;;;;;;20.67;11.50;;;16.90;99.90;;;;;;5077760;28;20461;-58
2023/10/08 08:26:26;;;;;;;19.87;11.40;;;16.80;99.90;;;;;;5077761;28;20516;-58
2023/10/08 08:28:56;;;;;;;28.83;13.10;;;16.90;99.90;;;;;;5077242;28;20735;-58
2023/10/08 08:31:24;;;;;;;20.50;11.53;;;16.70;99.90;;;;;;5077308;28;20865;-59
2023/10/08 08:33:56;;;;;;;23.57;13.03;;;16.50;99.90;;;;;;5077818;28;20462;-59
2023/10/08 08:36:24;;;;;;;27.80;13.57;;;16.20;99.90;;;;;;5077553;28;20468;-59
2023/10/08 08:38:51;;;;;;;24.43;13.80;;;16.10;99.90;;;;;;5074246;28;20474;-59
2023/10/08 08:41:20;;;;;;;27.77;14.70;;;16.20;99.90;;;;;;5074143;28;20470;-58
2023/10/08 08:43:56;;;;;;;25.30;15.07;;;16.10;99.90;;;;;;5075151;28;20759;-59
2023/10/08 08:46:29;;;;;;;28.97;16.07;;;16.10;1.00;;;;;;5075912;28;20453;-59
2023/10/08 08:49:01;;;;;;;32.67;16.97;;;16.20;1.00;;;;;;5075357;28;20469;-59
2023/10/08 08:51:31;;;;;;;35.83;17.27;;;16.20;1.00;;;;;;5070641;28;20900;-59
2023/10/08 08:54:00;;;;;;;30.30;16.80;;;16.30;1.00;;;;;;5072325;28;20556;-59
2023/10/08 08:56:30;;;;;;;29.17;17.47;;;16.40;1.00;;;;;;5076244;28;20708;-58
2023/10/08 08:58:59;;;;;;;42.30;20.20;;;16.50;1.00;;;;;;5075887;28;20464;-58
2023/10/08 09:01:27;;;;;;;41.70;20.23;;;16.60;1.00;;;;;;5076015;28;20869;-58
2023/10/08 09:04:05;;;;;;;45.30;23.63;;;16.70;1.00;;;;;;5075869;28;20773;-56
2023/10/08 09:06:33;;;;;;;42.93;24.20;;;16.80;1.00;;;;;;5075434;28;20518;-59
2023/10/08 09:09:20;;;;;;;43.00;26.90;;;16.80;1.00;;;;;;5074891;28;20513;-58
2023/10/08 09:11:51;;;;;;;42.53;25.77;;;16.90;99.90;;;;;;5075639;28;20439;-57
2023/10/08 09:14:20;;;;;;;44.73;25.77;;;16.60;99.90;;;;;;5074622;28;20850;-57
2023/10/08 09:16:48;;;;;;;49.47;24.80;;;16.50;1.00;;;;;;5072601;28;20452;-57
2023/10/08 09:19:18;;;;;;;43.43;22.63;;;16.70;1.00;;;;;;5074237;28;20465;-59
2023/10/08 09:22:01;;;;;;;47.43;24.90;;;16.60;99.90;;;;;;5075295;28;20436;-58
2023/10/08 09:24:28;;;;;;;40.70;25.67;;;16.70;99.90;;;;;;5075424;28;20462;-59
2023/10/08 09:26:58;;;;;;;46.07;29.27;;;16.80;99.90;;;;;;5075648;28;20464;-59
2023/10/08 09:29:26;;;;;;;44.37;26.40;;;16.50;1.00;;;;;;5076915;28;20875;-58
2023/10/08 09:31:56;;;;;;;43.57;26.23;;;16.40;1.00;;;;;;5076819;28;20489;-58
2023/10/08 09:34:35;;;;;;;46.70;26.73;;;16.70;1.00;;;;;;5076570;28;20460;-58
2023/10/08 09:37:03;;;;;;;48.87;28.83;;;16.80;1.00;;;;;;5077408;28;20862;-59
2023/10/08 09:39:33;;;;;;;51.17;29.07;;;16.90;99.90;;;;;;5077359;28;20552;-59
2023/10/08 09:42:06;;;;;;;47.37;32.10;;;16.90;99.90;;;;;;5080189;28;20518;-59
2023/10/08 09:44:33;;;;;;;51.03;34.70;;;16.80;99.90;;;;;;5080988;28;20468;-58
2023/10/08 09:47:09;;;;;;;33.97;26.30;;;16.70;99.90;;;;;;5080790;28;20457;-58
2023/10/08 09:49:52;;;;;;;25.10;19.50;;;16.70;99.90;;;;;;5080959;28;20893;-58
2023/10/08 09:52:34;;;;;;;18.43;15.30;;;16.60;99.90;;;;;;5081151;28;20493;-57
2023/10/08 09:55:03;;;;;;;17.97;16.10;;;16.40;1.00;;;;;;5079825;28;20448;-58
2023/10/08 09:57:33;;;;;;;15.90;12.50;;;16.30;1.00;;;;;;5079875;28;20461;-58
2023/10/08 10:00:01;;;;;;;15.47;11.27;;;16.20;1.00;;;;;;5081135;28;20468;-58
2023/10/08 10:02:31;;;;;;;16.60;11.53;;;15.90;1.00;;;;;;5080844;28;20503;-58
2023/10/08 10:05:06;;;;;;;15.80;10.37;;;15.80;1.00;;;;;;5080279;28;20436;-58
2023/10/08 10:07:35;;;;;;;13.70;10.27;;;15.90;1.00;;;;;;5080457;28;20500;-59
2023/10/08 10:10:13;;;;;;;12.43;9.43;;;15.90;1.00;;;;;;5080549;28;20484;-58
2023/10/08 10:12:43;;;;;;;16.60;10.17;;;16.00;1.00;;;;;;5079852;28;20471;-58
2023/10/08 10:15:13;;;;;;;14.83;9.30;;;16.00;1.00;;;;;;5080066;28;20556;-58
2023/10/08 10:17:41;;;;;;;15.90;8.90;;;16.00;1.00;;;;;;5080333;28;20461;-58
2023/10/08 10:20:13;;;;;;;11.47;7.83;;;16.10;1.00;;;;;;5079887;28;20461;-58
2023/10/08 10:22:43;;;;;;;10.10;6.60;;;16.20;1.00;;;;;;5079862;28;20461;-58
2023/10/08 10:25:16;;;;;;;9.07;6.03;;;16.30;99.90;;;;;;5068858;28;20480;-58
2023/10/08 10:28:08;;;;;;;8.57;5.83;;;16.50;99.90;;;;;;5080329;28;20563;-58
2023/10/08 10:30:36;;;;;;;7.10;4.73;;;16.60;99.90;;;;;;5078196;28;20752;-58
2023/10/08 10:33:05;;;;;;;8.27;5.90;;;16.80;99.90;;;;;;5078131;28;20558;-58
2023/10/08 10:35:40;;;;;;;16.93;9.60;;;16.90;99.90;;;;;;5079449;28;20466;-58
2023/10/08 10:38:07;;;;;;;17.60;10.00;;;17.00;99.90;;;;;;5079982;28;20751;-57
2023/10/08 10:40:40;;;;;;;16.60;8.97;;;16.90;99.90;;;;;;5078549;28;20469;-58
2023/10/08 10:43:09;;;;;;;16.40;9.70;;;16.80;99.90;;;;;;5078821;28;20453;-58
2023/10/08 10:45:36;;;;;;;13.20;8.50;;;16.80;99.90;;;;;;5079729;28;20716;-58
2023/10/08 10:48:12;;;;;;;15.40;9.10;;;16.90;99.90;;;;;;5079792;28;20734;-59
2023/10/08 10:50:48;;;;;;;19.20;10.07;;;16.90;99.90;;;;;;5079204;28;20439;-58
2023/10/08 10:53:17;;;;;;;15.90;8.37;;;16.80;99.90;;;;;;5078766;28;20468;-58
2023/10/08 10:55:58;;;;;;;12.67;6.90;;;17.00;99.90;;;;;;5079085;28;20530;-59
2023/10/08 10:58:28;;;;;;;9.53;6.67;;;17.00;99.90;;;;;;5078950;28;20475;-58
2023/10/08 11:00:59;;;;;;;12.97;6.57;;;17.20;99.90;;;;;;5079567;28;20522;-58
2023/10/08 11:03:28;;;;;;;12.07;6.47;;;17.40;99.90;;;;;;5079381;28;20461;-59
2023/10/08 11:06:05;;;;;;;11.10;6.73;;;17.60;45.20;;;;;;5071625;28;20775;-59
2023/10/08 11:08:35;;;;;;;11.07;5.83;;;17.50;1.00;;;;;;5066958;28;20500;-59
2023/10/08 11:11:06;;;;;;;9.07;5.67;;;17.50;1.00;;;;;;5076794;28;20836;-59
2023/10/08 11:13:38;;;;;;;8.27;6.03;;;17.30;7.10;;;;;;5078758;28;20489;-59
2023/10/08 11:16:08;;;;;;;11.67;6.07;;;17.00;1.00;;;;;;5079259;28;20461;-59
2023/10/08 11:18:37;;;;;;;10.77;6.53;;;16.80;99.90;;;;;;5078609;28;20552;-59
2023/10/08 11:21:24;;;;;;;14.57;7.23;;;16.80;99.90;;;;;;5078388;28;20784;-59
2023/10/08 11:23:58;;;;;;;10.17;5.57;;;16.70;99.90;;;;;;5079000;28;20457;-59
2023/10/08 11:26:35;;;;;;;8.93;5.73;;;16.70;95.00;;;;;;5078554;28;20457;-60
2023/10/08 11:29:05;;;;;;;11.53;6.70;;;16.60;99.90;;;;;;5078600;28;20564;-59
2023/10/08 11:31:33;;;;;;;10.73;5.87;;;16.70;99.90;;;;;;5077822;28;20462;-59
2023/10/08 11:34:08;;;;;;;11.70;6.57;;;16.80;99.90;;;;;;5077740;28;20784;-59
2023/10/08 11:36:48;;;;;;;14.53;7.60;;;17.00;99.90;;;;;;5077330;28;20491;-59
2023/10/08 11:39:22;;;;;;;9.83;6.50;;;17.20;99.90;;;;;;5073627;28;20445;-58
2023/10/08 11:41:57;;;;;;;11.07;7.40;;;17.40;47.50;;;;;;5074679;28;20457;-58
2023/10/08 11:44:30;;;;;;;10.23;7.60;;;17.60;15.00;;;;;;5078173;28;20571;-59
2023/10/08 11:47:04;;;;;;;14.50;7.70;;;17.70;1.00;;;;;;5077926;28;20463;-59
2023/10/08 11:49:36;;;;;;;13.40;7.73;;;17.70;1.00;;;;;;5076883;28;20525;-59
2023/10/08 11:52:05;;;;;;;12.20;7.73;;;17.80;1.00;;;;;;5071710;28;20477;-59
2023/10/08 11:54:32;;;;;;;12.07;7.40;;;17.60;1.00;;;;;;5061663;28;20464;-59
2023/10/08 11:57:02;;;;;;;10.10;8.03;;;17.80;1.00;;;;;;5075642;28;20840;-59
2023/10/08 11:59:32;;;;;;;11.53;9.53;;;17.80;1.00;;;;;;5070496;28;20466;-58
2023/10/08 12:01:59;;;;;;;15.47;10.30;;;17.80;1.00;;;;;;5065478;28;20836;-59
2023/10/08 12:04:29;;;;;;;16.07;9.57;;;18.00;1.00;;;;;;5076244;28;20850;-59
2023/10/08 12:06:57;;;;;;;11.33;8.60;;;18.00;1.00;;;;;;5077003;28;20468;-58
2023/10/08 12:09:27;;;;;;;10.67;8.83;;;18.00;1.00;;;;;;5077374;28;20477;-59
2023/10/08 12:11:56;;;;;;;13.60;8.57;;;18.10;1.00;;;;;;5076437;28;20443;-59
2023/10/08 12:14:30;;;;;;;14.53;10.53;;;18.30;1.00;;;;;;5076140;28;20456;-59
2023/10/08 12:17:00;;;;;;;13.80;9.50;;;18.50;1.00;;;;;;5071368;28;20444;-59
2023/10/08 12:19:32;;;;;;;10.47;8.30;;;18.60;1.00;;;;;;5076738;28;20461;-59
2023/10/08 12:22:02;;;;;;;13.43;9.70;;;18.70;1.00;;;;;;5077097;28;20555;-60
2023/10/08 12:24:31;;;;;;;11.13;8.77;;;18.80;1.00;;;;;;5077209;28;20457;-59
2023/10/08 12:26:59;;;;;;;12.53;9.30;;;18.60;1.00;;;;;;5077123;28;20463;-59
2023/10/08 12:29:28;;;;;;;13.70;9.30;;;18.60;1.00;;;;;;5077516;28;20498;-59
2023/10/08 12:31:56;;;;;;;12.20;8.87;;;18.50;1.00;;;;;;5077316;28;20913;-59
2023/10/08 12:34:23;;;;;;;15.57;10.70;;;18.40;1.00;;;;;;5077511;28;20547;-59
2023/10/08 12:36:52;;;;;;;14.83;11.20;;;18.50;1.00;;;;;;5077286;28;20457;-59
2023/10/08 12:39:25;;;;;;;14.10;11.40;;;18.50;1.00;;;;;;5077241;28;20457;-59
2023/10/08 12:41:54;;;;;;;14.50;11.30;;;18.40;1.00;;;;;;5077638;28;20444;-59
2023/10/08 12:44:23;;;;;;;13.13;9.90;;;18.40;1.00;;;;;;5076544;28;20469;-59
2023/10/08 12:46:51;;;;;;;15.10;11.10;;;18.40;1.00;;;;;;5076021;28;20744;-59
2023/10/08 12:49:21;;;;;;;16.30;12.40;;;18.50;1.00;;;;;;5075599;28;20456;-59
2023/10/08 12:51:48;;;;;;;16.03;14.27;;;18.50;1.00;;;;;;5075948;28;20432;-59
2023/10/08 12:54:21;;;;;;;15.00;12.17;;;18.50;1.00;;;;;;5075222;28;20583;-59
2023/10/08 12:56:49;;;;;;;15.23;12.47;;;18.50;1.00;;;;;;5075005;28;21083;-59
2023/10/08 12:59:21;;;;;;;13.03;10.83;;;18.50;1.00;;;;;;5074439;28;20465;-59
2023/10/08 13:01:51;;;;;;;13.40;11.33;;;18.50;1.00;;;;;;5074388;28;20428;-60
2023/10/08 13:04:26;;;;;;;15.27;12.53;;;18.40;1.00;;;;;;5074891;28;20424;-59
2023/10/08 13:06:56;;;;;;;15.40;12.53;;;18.40;1.00;;;;;;5074627;28;20460;-60
2023/10/08 13:09:24;;;;;;;14.67;12.60;;;18.40;1.00;;;;;;5075324;28;20481;-60
2023/10/08 13:11:51;;;;;;;12.47;11.00;;;18.40;1.00;;;;;;5075935;28;20431;-59
2023/10/08 13:14:23;;;;;;;14.53;11.50;;;18.30;1.00;;;;;;5077189;28;20489;-59
2023/10/08 13:16:53;;;;;;;17.53;12.90;;;18.30;1.00;;;;;;5083743;28;20761;-59
2023/10/08 13:19:23;;;;;;;12.97;11.40;;;18.40;1.00;;;;;;5082378;28;20457;-60
2023/10/08 13:21:52;;;;;;;13.67;12.00;;;18.20;1.00;;;;;;5082318;28;20659;-60
2023/10/08 13:24:20;;;;;;;15.23;12.60;;;18.20;1.00;;;;;;5083394;28;20806;-60
2023/10/08 13:26:48;;;;;;;14.40;11.57;;;17.80;1.00;;;;;;5082654;28;20522;-59
2023/10/08 13:29:18;;;;;;;19.90;14.47;;;17.80;99.90;;;;;;5082792;28;20515;-59